sensor_id;sensor_type;location;lat;lon;timestamp;temperature;humidity
63017;DHT22;50274;45.640;11.756;2022-09-01T00:01:17;23.80;72.60
63017;DHT22;50274;45.640;11.756;2022-09-01T00:03:49;23.80;72.60
63017;DHT22;50274;45.640;11.756;2022-09-01T00:06:18;23.80;72.60
63017;DHT22;50274;45.640;11.756;2022-09-01T00:08:56;23.80;72.70
63017;DHT22;50274;45.640;11.756;2022-09-01T00:11:23;23.80;72.80
63017;DHT22;50274;45.640;11.756;2022-09-01T00:13:51;23.80;72.80
63017;DHT22;50274;45.640;11.756;2022-09-01T00:16:18;23.80;72.80
63017;DHT22;50274;45.640;11.756;2022-09-01T00:18:48;23.90;72.90
63017;DHT22;50274;45.640;11.756;2022-09-01T00:21:16;23.80;72.90
63017;DHT22;50274;45.640;11.756;2022-09-01T00:23:43;23.80;73.10
63017;DHT22;50274;45.640;11.756;2022-09-01T00:26:09;23.80;73.10
63017;DHT22;50274;45.640;11.756;2022-09-01T00:28:36;23.80;73.20
63017;DHT22;50274;45.640;11.756;2022-09-01T00:31:03;23.80;73.30
63017;DHT22;50274;45.640;11.756;2022-09-01T00:33:32;23.70;73.30
63017;DHT22;50274;45.640;11.756;2022-09-01T00:35:57;23.70;73.50
63017;DHT22;50274;45.640;11.756;2022-09-01T00:38:24;23.70;73.60
63017;DHT22;50274;45.640;11.756;2022-09-01T00:40:50;23.60;73.70
63017;DHT22;50274;45.640;11.756;2022-09-01T00:43:20;23.60;73.70
63017;DHT22;50274;45.640;11.756;2022-09-01T00:45:47;23.60;73.80
63017;DHT22;50274;45.640;11.756;2022-09-01T00:48:16;23.50;73.90
63017;DHT22;50274;45.640;11.756;2022-09-01T00:50:43;23.50;74.00
63017;DHT22;50274;45.640;11.756;2022-09-01T00:53:09;23.50;74.00
63017;DHT22;50274;45.640;11.756;2022-09-01T00:55:36;23.50;74.10
63017;DHT22;50274;45.640;11.756;2022-09-01T00:58:04;23.50;74.10
63017;DHT22;50274;45.640;11.756;2022-09-01T01:00:32;23.40;74.10
63017;DHT22;50274;45.640;11.756;2022-09-01T01:02:58;23.40;74.10
63017;DHT22;50274;45.640;11.756;2022-09-01T01:05:36;23.50;74.00
63017;DHT22;50274;45.640;11.756;2022-09-01T01:08:04;23.50;74.00
63017;DHT22;50274;45.640;11.756;2022-09-01T01:10:36;23.50;73.90
63017;DHT22;50274;45.640;11.756;2022-09-01T01:13:07;23.40;73.80
63017;DHT22;50274;45.640;11.756;2022-09-01T01:15:33;23.40;73.90
63017;DHT22;50274;45.640;11.756;2022-09-01T01:17:59;23.40;73.90
63017;DHT22;50274;45.640;11.756;2022-09-01T01:20:26;23.40;73.90
63017;DHT22;50274;45.640;11.756;2022-09-01T01:23:47;23.40;73.90
63017;DHT22;50274;45.640;11.756;2022-09-01T01:26:16;23.40;74.00
63017;DHT22;50274;45.640;11.756;2022-09-01T01:28:41;23.40;73.90
63017;DHT22;50274;45.640;11.756;2022-09-01T01:31:13;23.30;73.90
63017;DHT22;50274;45.640;11.756;2022-09-01T01:33:45;23.30;73.90
63017;DHT22;50274;45.640;11.756;2022-09-01T01:36:23;23.30;74.00
63017;DHT22;50274;45.640;11.756;2022-09-01T01:38:58;23.30;73.90
63017;DHT22;50274;45.640;11.756;2022-09-01T01:41:27;23.30;73.80
63017;DHT22;50274;45.640;11.756;2022-09-01T01:43:56;23.30;73.70
63017;DHT22;50274;45.640;11.756;2022-09-01T01:46:23;23.30;73.60
63017;DHT22;50274;45.640;11.756;2022-09-01T01:48:50;23.30;73.60
63017;DHT22;50274;45.640;11.756;2022-09-01T01:51:18;23.30;73.50
63017;DHT22;50274;45.640;11.756;2022-09-01T01:53:46;23.30;73.50
63017;DHT22;50274;45.640;11.756;2022-09-01T01:56:18;23.30;73.50
63017;DHT22;50274;45.640;11.756;2022-09-01T01:58:44;23.30;73.40
63017;DHT22;50274;45.640;11.756;2022-09-01T02:01:11;23.30;73.30
63017;DHT22;50274;45.640;11.756;2022-09-01T02:03:38;23.30;73.20
63017;DHT22;50274;45.640;11.756;2022-09-01T02:06:10;23.30;73.10
63017;DHT22;50274;45.640;11.756;2022-09-01T02:08:37;23.30;73.10
63017;DHT22;50274;45.640;11.756;2022-09-01T02:11:04;23.30;73.00
63017;DHT22;50274;45.640;11.756;2022-09-01T02:13:30;23.20;73.00
63017;DHT22;50274;45.640;11.756;2022-09-01T02:16:03;23.20;72.90
63017;DHT22;50274;45.640;11.756;2022-09-01T02:18:37;23.20;73.00
63017;DHT22;50274;45.640;11.756;2022-09-01T02:21:05;23.20;72.90
63017;DHT22;50274;45.640;11.756;2022-09-01T02:23:39;23.20;72.90
63017;DHT22;50274;45.640;11.756;2022-09-01T02:26:06;23.20;72.90
63017;DHT22;50274;45.640;11.756;2022-09-01T02:28:36;23.20;72.90
63017;DHT22;50274;45.640;11.756;2022-09-01T02:31:04;23.20;72.90
63017;DHT22;50274;45.640;11.756;2022-09-01T02:33:33;23.20;72.80
63017;DHT22;50274;45.640;11.756;2022-09-01T02:36:06;23.20;72.80
63017;DHT22;50274;45.640;11.756;2022-09-01T02:38:33;23.20;72.80
63017;DHT22;50274;45.640;11.756;2022-09-01T02:41:01;23.20;72.80
63017;DHT22;50274;45.640;11.756;2022-09-01T02:43:29;23.20;72.70
63017;DHT22;50274;45.640;11.756;2022-09-01T02:45:58;23.20;72.70
63017;DHT22;50274;45.640;11.756;2022-09-01T02:48:30;23.20;72.60
63017;DHT22;50274;45.640;11.756;2022-09-01T02:51:01;23.20;72.50
63017;DHT22;50274;45.640;11.756;2022-09-01T02:53:31;23.30;72.20
63017;DHT22;50274;45.640;11.756;2022-09-01T02:56:00;23.20;72.10
63017;DHT22;50274;45.640;11.756;2022-09-01T02:58:28;23.30;72.00
63017;DHT22;50274;45.640;11.756;2022-09-01T03:00:56;23.20;71.70
63017;DHT22;50274;45.640;11.756;2022-09-01T03:03:23;23.20;71.40
63017;DHT22;50274;45.640;11.756;2022-09-01T03:05:52;23.20;71.30
63017;DHT22;50274;45.640;11.756;2022-09-01T03:08:22;23.10;71.20
63017;DHT22;50274;45.640;11.756;2022-09-01T03:10:49;23.10;71.00
63017;DHT22;50274;45.640;11.756;2022-09-01T03:13:20;23.10;70.90
63017;DHT22;50274;45.640;11.756;2022-09-01T03:15:46;23.10;70.40
63017;DHT22;50274;45.640;11.756;2022-09-01T03:18:13;23.10;70.00
63017;DHT22;50274;45.640;11.756;2022-09-01T03:20:41;23.10;69.00
63017;DHT22;50274;45.640;11.756;2022-09-01T03:23:11;23.10;67.60
63017;DHT22;50274;45.640;11.756;2022-09-01T03:25:41;23.10;67.80
63017;DHT22;50274;45.640;11.756;2022-09-01T03:28:07;23.10;67.90
63017;DHT22;50274;45.640;11.756;2022-09-01T03:30:35;23.10;67.70
63017;DHT22;50274;45.640;11.756;2022-09-01T03:33:06;23.10;67.60
63017;DHT22;50274;45.640;11.756;2022-09-01T03:35:32;23.10;67.60
63017;DHT22;50274;45.640;11.756;2022-09-01T03:37:59;23.10;67.60
63017;DHT22;50274;45.640;11.756;2022-09-01T03:40:29;23.10;67.40
63017;DHT22;50274;45.640;11.756;2022-09-01T03:43:02;23.00;67.50
63017;DHT22;50274;45.640;11.756;2022-09-01T03:45:29;23.00;67.60
63017;DHT22;50274;45.640;11.756;2022-09-01T03:47:55;23.00;67.70
63017;DHT22;50274;45.640;11.756;2022-09-01T03:50:23;23.00;67.70
63017;DHT22;50274;45.640;11.756;2022-09-01T03:52:51;23.00;67.80
63017;DHT22;50274;45.640;11.756;2022-09-01T03:55:23;23.00;67.50
63017;DHT22;50274;45.640;11.756;2022-09-01T03:58:01;23.00;67.30
63017;DHT22;50274;45.640;11.756;2022-09-01T04:00:41;22.90;66.40
63017;DHT22;50274;45.640;11.756;2022-09-01T04:03:10;22.90;66.30
63017;DHT22;50274;45.640;11.756;2022-09-01T04:05:41;22.80;66.40
63017;DHT22;50274;45.640;11.756;2022-09-01T04:08:08;22.80;66.00
63017;DHT22;50274;45.640;11.756;2022-09-01T04:11:00;22.80;65.10
63017;DHT22;50274;45.640;11.756;2022-09-01T04:13:30;22.90;64.80
63017;DHT22;50274;45.640;11.756;2022-09-01T04:15:57;22.80;65.10
63017;DHT22;50274;45.640;11.756;2022-09-01T04:18:23;22.80;65.00
63017;DHT22;50274;45.640;11.756;2022-09-01T04:20:57;22.80;65.10
63017;DHT22;50274;45.640;11.756;2022-09-01T04:23:29;22.70;65.00
63017;DHT22;50274;45.640;11.756;2022-09-01T04:26:00;22.70;64.90
63017;DHT22;50274;45.640;11.756;2022-09-01T04:28:41;22.80;64.40
63017;DHT22;50274;45.640;11.756;2022-09-01T04:31:13;22.70;64.80
63017;DHT22;50274;45.640;11.756;2022-09-01T04:33:42;22.70;64.80
63017;DHT22;50274;45.640;11.756;2022-09-01T04:36:19;22.70;64.80
63017;DHT22;50274;45.640;11.756;2022-09-01T04:38:53;22.70;65.00
63017;DHT22;50274;45.640;11.756;2022-09-01T04:41:24;22.70;65.10
63017;DHT22;50274;45.640;11.756;2022-09-01T04:43:51;22.70;65.20
63017;DHT22;50274;45.640;11.756;2022-09-01T04:46:21;22.70;65.30
63017;DHT22;50274;45.640;11.756;2022-09-01T04:48:50;22.70;65.20
63017;DHT22;50274;45.640;11.756;2022-09-01T04:51:16;22.70;65.20
63017;DHT22;50274;45.640;11.756;2022-09-01T04:53:42;22.70;65.40
63017;DHT22;50274;45.640;11.756;2022-09-01T04:56:14;22.70;65.40
63017;DHT22;50274;45.640;11.756;2022-09-01T04:58:50;22.60;65.40
63017;DHT22;50274;45.640;11.756;2022-09-01T05:01:19;22.60;65.60
63017;DHT22;50274;45.640;11.756;2022-09-01T05:03:46;22.60;65.60
63017;DHT22;50274;45.640;11.756;2022-09-01T05:06:26;22.60;65.50
63017;DHT22;50274;45.640;11.756;2022-09-01T05:08:53;22.60;65.30
63017;DHT22;50274;45.640;11.756;2022-09-01T05:11:23;22.60;65.50
63017;DHT22;50274;45.640;11.756;2022-09-01T05:13:50;22.60;65.70
63017;DHT22;50274;45.640;11.756;2022-09-01T05:16:22;22.60;65.80
63017;DHT22;50274;45.640;11.756;2022-09-01T05:18:52;22.60;65.80
63017;DHT22;50274;45.640;11.756;2022-09-01T05:21:21;22.70;65.70
63017;DHT22;50274;45.640;11.756;2022-09-01T05:23:49;22.70;65.80
63017;DHT22;50274;45.640;11.756;2022-09-01T05:26:25;22.70;66.00
63017;DHT22;50274;45.640;11.756;2022-09-01T05:28:54;22.70;66.10
63017;DHT22;50274;45.640;11.756;2022-09-01T05:31:22;22.70;66.10
63017;DHT22;50274;45.640;11.756;2022-09-01T05:33:49;22.70;66.20
63017;DHT22;50274;45.640;11.756;2022-09-01T05:36:18;22.70;66.30
63017;DHT22;50274;45.640;11.756;2022-09-01T05:38:45;22.70;66.30
63017;DHT22;50274;45.640;11.756;2022-09-01T05:41:14;22.80;66.30
63017;DHT22;50274;45.640;11.756;2022-09-01T05:43:41;22.80;66.40
63017;DHT22;50274;45.640;11.756;2022-09-01T05:46:11;22.80;66.50
63017;DHT22;50274;45.640;11.756;2022-09-01T05:48:37;22.80;66.50
63017;DHT22;50274;45.640;11.756;2022-09-01T05:51:06;22.80;66.50
63017;DHT22;50274;45.640;11.756;2022-09-01T05:53:32;22.80;66.60
63017;DHT22;50274;45.640;11.756;2022-09-01T05:55:59;22.90;66.60
63017;DHT22;50274;45.640;11.756;2022-09-01T05:58:31;22.90;66.50
63017;DHT22;50274;45.640;11.756;2022-09-01T06:01:00;23.00;66.40
63017;DHT22;50274;45.640;11.756;2022-09-01T06:03:27;23.00;66.30
63017;DHT22;50274;45.640;11.756;2022-09-01T06:05:54;23.00;66.30
63017;DHT22;50274;45.640;11.756;2022-09-01T06:08:22;23.00;66.30
63017;DHT22;50274;45.640;11.756;2022-09-01T06:10:50;23.00;66.10
63017;DHT22;50274;45.640;11.756;2022-09-01T06:13:17;23.10;66.10
63017;DHT22;50274;45.640;11.756;2022-09-01T06:15:47;23.10;66.00
63017;DHT22;50274;45.640;11.756;2022-09-01T06:18:13;23.10;65.90
63017;DHT22;50274;45.640;11.756;2022-09-01T06:20:41;23.10;65.90
63017;DHT22;50274;45.640;11.756;2022-09-01T06:23:09;23.10;65.70
63017;DHT22;50274;45.640;11.756;2022-09-01T06:25:42;23.10;65.50
63017;DHT22;50274;45.640;11.756;2022-09-01T06:28:15;23.20;65.30
63017;DHT22;50274;45.640;11.756;2022-09-01T06:30:41;23.20;64.90
63017;DHT22;50274;45.640;11.756;2022-09-01T06:33:10;23.20;64.50
63017;DHT22;50274;45.640;11.756;2022-09-01T06:35:39;23.30;63.90
63017;DHT22;50274;45.640;11.756;2022-09-01T06:38:07;23.30;63.50
63017;DHT22;50274;45.640;11.756;2022-09-01T06:40:34;23.30;63.50
63017;DHT22;50274;45.640;11.756;2022-09-01T06:43:03;23.30;63.30
63017;DHT22;50274;45.640;11.756;2022-09-01T06:45:37;23.30;63.00
63017;DHT22;50274;45.640;11.756;2022-09-01T06:48:03;23.30;62.70
63017;DHT22;50274;45.640;11.756;2022-09-01T06:50:29;23.30;62.50
63017;DHT22;50274;45.640;11.756;2022-09-01T06:52:55;23.30;62.10
63017;DHT22;50274;45.640;11.756;2022-09-01T06:55:37;23.20;62.30
63017;DHT22;50274;45.640;11.756;2022-09-01T06:58:07;23.20;62.10
63017;DHT22;50274;45.640;11.756;2022-09-01T07:00:36;23.20;62.10
63017;DHT22;50274;45.640;11.756;2022-09-01T07:03:07;23.20;62.30
63017;DHT22;50274;45.640;11.756;2022-09-01T07:05:38;23.30;62.50
63017;DHT22;50274;45.640;11.756;2022-09-01T07:08:04;23.30;62.20
63017;DHT22;50274;45.640;11.756;2022-09-01T07:10:43;23.30;61.90
63017;DHT22;50274;45.640;11.756;2022-09-01T07:13:18;23.30;61.70
63017;DHT22;50274;45.640;11.756;2022-09-01T07:15:52;23.30;61.80
63017;DHT22;50274;45.640;11.756;2022-09-01T07:18:22;23.30;62.00
63017;DHT22;50274;45.640;11.756;2022-09-01T07:20:53;23.30;61.50
63017;DHT22;50274;45.640;11.756;2022-09-01T07:23:19;23.30;61.50
63017;DHT22;50274;45.640;11.756;2022-09-01T07:25:49;23.30;61.60
63017;DHT22;50274;45.640;11.756;2022-09-01T07:28:24;23.40;61.90
63017;DHT22;50274;45.640;11.756;2022-09-01T07:30:51;23.40;61.90
63017;DHT22;50274;45.640;11.756;2022-09-01T07:33:19;23.50;61.60
63017;DHT22;50274;45.640;11.756;2022-09-01T07:35:50;23.50;61.90
63017;DHT22;50274;45.640;11.756;2022-09-01T07:38:28;23.50;61.70
63017;DHT22;50274;45.640;11.756;2022-09-01T07:40:55;23.70;60.50
63017;DHT22;50274;45.640;11.756;2022-09-01T07:43:25;23.70;60.70
63017;DHT22;50274;45.640;11.756;2022-09-01T07:45:57;23.70;61.00
63017;DHT22;50274;45.640;11.756;2022-09-01T07:48:25;23.80;61.10
63017;DHT22;50274;45.640;11.756;2022-09-01T07:50:54;23.90;60.80
63017;DHT22;50274;45.640;11.756;2022-09-01T07:53:27;24.00;60.50
63017;DHT22;50274;45.640;11.756;2022-09-01T07:55:54;24.10;60.40
63017;DHT22;50274;45.640;11.756;2022-09-01T07:58:24;24.20;60.50
63017;DHT22;50274;45.640;11.756;2022-09-01T08:00:50;24.40;59.90
63017;DHT22;50274;45.640;11.756;2022-09-01T08:03:19;24.50;59.80
63017;DHT22;50274;45.640;11.756;2022-09-01T08:05:46;24.60;59.10
63017;DHT22;50274;45.640;11.756;2022-09-01T08:08:16;24.80;58.60
63017;DHT22;50274;45.640;11.756;2022-09-01T08:10:42;25.00;57.90
63017;DHT22;50274;45.640;11.756;2022-09-01T08:13:10;25.10;57.60
63017;DHT22;50274;45.640;11.756;2022-09-01T08:15:38;25.20;57.10
63017;DHT22;50274;45.640;11.756;2022-09-01T08:18:05;25.30;56.90
63017;DHT22;50274;45.640;11.756;2022-09-01T08:20:31;25.40;56.70
63017;DHT22;50274;45.640;11.756;2022-09-01T08:23:02;25.40;56.60
63017;DHT22;50274;45.640;11.756;2022-09-01T08:25:29;25.50;55.70
63017;DHT22;50274;45.640;11.756;2022-09-01T08:27:55;25.50;55.80
63017;DHT22;50274;45.640;11.756;2022-09-01T08:30:21;25.40;55.90
63017;DHT22;50274;45.640;11.756;2022-09-01T08:32:48;25.40;56.00
63017;DHT22;50274;45.640;11.756;2022-09-01T08:35:14;25.50;56.10
63017;DHT22;50274;45.640;11.756;2022-09-01T08:37:42;25.50;55.60
63017;DHT22;50274;45.640;11.756;2022-09-01T08:40:13;25.60;55.00
63017;DHT22;50274;45.640;11.756;2022-09-01T08:45:30;25.70;54.60
63017;DHT22;50274;45.640;11.756;2022-09-01T08:48:16;25.70;54.70
63017;DHT22;50274;45.640;11.756;2022-09-01T08:50:44;25.70;53.80
63017;DHT22;50274;45.640;11.756;2022-09-01T08:55:53;25.70;54.20
63017;DHT22;50274;45.640;11.756;2022-09-01T08:58:20;25.70;54.10
63017;DHT22;50274;45.640;11.756;2022-09-01T09:00:59;25.70;54.00
63017;DHT22;50274;45.640;11.756;2022-09-01T09:06:51;25.80;54.30
63017;DHT22;50274;45.640;11.756;2022-09-01T09:09:20;25.80;54.00
63017;DHT22;50274;45.640;11.756;2022-09-01T09:12:11;25.80;53.50
63017;DHT22;50274;45.640;11.756;2022-09-01T09:17:46;25.80;54.10
63017;DHT22;50274;45.640;11.756;2022-09-01T09:20:14;25.80;54.10
63017;DHT22;50274;45.640;11.756;2022-09-01T09:22:41;25.80;53.80
63017;DHT22;50274;45.640;11.756;2022-09-01T09:25:10;25.80;53.30
63017;DHT22;50274;45.640;11.756;2022-09-01T09:27:41;25.80;53.40
63017;DHT22;50274;45.640;11.756;2022-09-01T09:30:23;25.90;53.60
63017;DHT22;50274;45.640;11.756;2022-09-01T09:32:58;25.90;53.80
63017;DHT22;50274;45.640;11.756;2022-09-01T09:35:42;26.00;53.60
63017;DHT22;50274;45.640;11.756;2022-09-01T09:43:23;26.30;53.00
63017;DHT22;50274;45.640;11.756;2022-09-01T09:48:42;26.60;52.40
63017;DHT22;50274;45.640;11.756;2022-09-01T09:51:35;26.70;52.50
63017;DHT22;50274;45.640;11.756;2022-09-01T09:54:17;26.80;52.20
63017;DHT22;50274;45.640;11.756;2022-09-01T09:56:44;26.90;52.20
63017;DHT22;50274;45.640;11.756;2022-09-01T10:01:47;27.20;51.60
63017;DHT22;50274;45.640;11.756;2022-09-01T10:04:32;27.30;51.30
63017;DHT22;50274;45.640;11.756;2022-09-01T10:06:58;27.40;50.90
63017;DHT22;50274;45.640;11.756;2022-09-01T10:11:55;27.40;50.30
63017;DHT22;50274;45.640;11.756;2022-09-01T10:14:56;27.40;50.40
63017;DHT22;50274;45.640;11.756;2022-09-01T10:17:29;27.20;50.80
63017;DHT22;50274;45.640;11.756;2022-09-01T10:20:08;27.10;50.10
63017;DHT22;50274;45.640;11.756;2022-09-01T10:22:37;27.00;50.10
63017;DHT22;50274;45.640;11.756;2022-09-01T10:25:05;27.00;50.10
63017;DHT22;50274;45.640;11.756;2022-09-01T10:27:35;26.90;50.70
63017;DHT22;50274;45.640;11.756;2022-09-01T10:30:11;27.00;51.20
63017;DHT22;50274;45.640;11.756;2022-09-01T10:32:56;27.00;51.40
63017;DHT22;50274;45.640;11.756;2022-09-01T10:35:27;27.10;50.50
63017;DHT22;50274;45.640;11.756;2022-09-01T10:37:55;27.10;49.90
63017;DHT22;50274;45.640;11.756;2022-09-01T10:43:32;27.40;50.00
63017;DHT22;50274;45.640;11.756;2022-09-01T10:46:07;27.50;49.70
63017;DHT22;50274;45.640;11.756;2022-09-01T10:48:34;27.60;49.60
63017;DHT22;50274;45.640;11.756;2022-09-01T10:53:52;28.20;48.60
63017;DHT22;50274;45.640;11.756;2022-09-01T10:56:46;28.40;47.80
63017;DHT22;50274;45.640;11.756;2022-09-01T10:59:25;28.70;46.90
63017;DHT22;50274;45.640;11.756;2022-09-01T11:09:46;29.30;43.80
63017;DHT22;50274;45.640;11.756;2022-09-01T11:14:57;29.40;44.80
63017;DHT22;50274;45.640;11.756;2022-09-01T11:32:46;30.40;41.90
63017;DHT22;50274;45.640;11.756;2022-09-01T11:35:18;30.40;42.60
63017;DHT22;50274;45.640;11.756;2022-09-01T11:37:48;30.30;42.20
63017;DHT22;50274;45.640;11.756;2022-09-01T11:40:21;30.20;41.20
63017;DHT22;50274;45.640;11.756;2022-09-01T11:42:53;30.00;41.70
63017;DHT22;50274;45.640;11.756;2022-09-01T11:45:26;29.90;42.10
63017;DHT22;50274;45.640;11.756;2022-09-01T11:48:01;29.70;42.00
63017;DHT22;50274;45.640;11.756;2022-09-01T11:50:30;29.80;41.40
63017;DHT22;50274;45.640;11.756;2022-09-01T11:53:01;30.00;41.30
63017;DHT22;50274;45.640;11.756;2022-09-01T11:55:30;30.10;41.40
63017;DHT22;50274;45.640;11.756;2022-09-01T11:57:57;30.40;40.90
63017;DHT22;50274;45.640;11.756;2022-09-01T12:00:35;30.50;41.20
63017;DHT22;50274;45.640;11.756;2022-09-01T12:03:25;30.50;41.00
63017;DHT22;50274;45.640;11.756;2022-09-01T12:05:58;30.50;41.20
63017;DHT22;50274;45.640;11.756;2022-09-01T12:08:27;30.70;40.70
63017;DHT22;50274;45.640;11.756;2022-09-01T12:11:17;30.60;39.50
63017;DHT22;50274;45.640;11.756;2022-09-01T12:13:55;30.50;40.30
63017;DHT22;50274;45.640;11.756;2022-09-01T12:16:21;30.60;40.50
63017;DHT22;50274;45.640;11.756;2022-09-01T12:18:51;30.60;40.70
63017;DHT22;50274;45.640;11.756;2022-09-01T12:21:21;30.40;40.40
63017;DHT22;50274;45.640;11.756;2022-09-01T12:23:47;30.50;40.80
63017;DHT22;50274;45.640;11.756;2022-09-01T12:26:25;30.60;40.40
63017;DHT22;50274;45.640;11.756;2022-09-01T12:28:52;30.60;39.90
63017;DHT22;50274;45.640;11.756;2022-09-01T12:31:22;30.70;39.80
63017;DHT22;50274;45.640;11.756;2022-09-01T12:33:48;31.00;39.80
63017;DHT22;50274;45.640;11.756;2022-09-01T12:38:59;31.10;40.50
63017;DHT22;50274;45.640;11.756;2022-09-01T12:41:43;31.10;39.40
63017;DHT22;50274;45.640;11.756;2022-09-01T12:46:56;31.40;39.70
63017;DHT22;50274;45.640;11.756;2022-09-01T12:49:33;31.50;38.90
63017;DHT22;50274;45.640;11.756;2022-09-01T12:52:28;31.60;38.80
63017;DHT22;50274;45.640;11.756;2022-09-01T12:57:56;31.50;39.10
63017;DHT22;50274;45.640;11.756;2022-09-01T13:00:32;31.60;40.10
63017;DHT22;50274;45.640;11.756;2022-09-01T13:03:14;31.50;39.80
63017;DHT22;50274;45.640;11.756;2022-09-01T13:05:52;31.30;39.10
63017;DHT22;50274;45.640;11.756;2022-09-01T13:08:22;31.20;39.00
63017;DHT22;50274;45.640;11.756;2022-09-01T13:11:06;31.00;39.50
63017;DHT22;50274;45.640;11.756;2022-09-01T13:13:32;30.70;40.70
63017;DHT22;50274;45.640;11.756;2022-09-01T13:16:00;30.40;41.40
63017;DHT22;50274;45.640;11.756;2022-09-01T13:18:29;30.10;42.00
63017;DHT22;50274;45.640;11.756;2022-09-01T13:20:56;29.90;42.50
63017;DHT22;50274;45.640;11.756;2022-09-01T13:23:22;29.80;42.90
63017;DHT22;50274;45.640;11.756;2022-09-01T13:25:48;29.70;43.40
63017;DHT22;50274;45.640;11.756;2022-09-01T13:28:15;29.60;43.40
63017;DHT22;50274;45.640;11.756;2022-09-01T13:30:43;29.50;43.60
63017;DHT22;50274;45.640;11.756;2022-09-01T13:33:11;29.50;44.40
63017;DHT22;50274;45.640;11.756;2022-09-01T13:35:37;29.70;44.90
63017;DHT22;50274;45.640;11.756;2022-09-01T13:38:03;29.90;43.60
63017;DHT22;50274;45.640;11.756;2022-09-01T13:40:29;29.90;43.40
63017;DHT22;50274;45.640;11.756;2022-09-01T13:42:55;29.90;43.50
63017;DHT22;50274;45.640;11.756;2022-09-01T13:45:22;29.70;43.80
63017;DHT22;50274;45.640;11.756;2022-09-01T13:47:52;29.60;44.10
63017;DHT22;50274;45.640;11.756;2022-09-01T13:50:20;29.40;43.70
63017;DHT22;50274;45.640;11.756;2022-09-01T13:52:53;29.20;44.10
63017;DHT22;50274;45.640;11.756;2022-09-01T13:55:22;29.10;44.50
63017;DHT22;50274;45.640;11.756;2022-09-01T13:57:48;28.90;45.00
63017;DHT22;50274;45.640;11.756;2022-09-01T14:00:17;28.70;45.20
63017;DHT22;50274;45.640;11.756;2022-09-01T14:02:46;28.50;45.70
63017;DHT22;50274;45.640;11.756;2022-09-01T14:05:22;28.30;46.80
63017;DHT22;50274;45.640;11.756;2022-09-01T14:07:48;28.20;48.50
63017;DHT22;50274;45.640;11.756;2022-09-01T14:10:15;28.10;50.60
63017;DHT22;50274;45.640;11.756;2022-09-01T14:12:42;28.00;52.30
63017;DHT22;50274;45.640;11.756;2022-09-01T14:15:09;27.80;52.40
63017;DHT22;50274;45.640;11.756;2022-09-01T14:17:36;27.70;52.80
63017;DHT22;50274;45.640;11.756;2022-09-01T14:20:08;27.60;53.70
63017;DHT22;50274;45.640;11.756;2022-09-01T14:22:35;27.50;54.20
63017;DHT22;50274;45.640;11.756;2022-09-01T14:25:01;27.50;54.70
63017;DHT22;50274;45.640;11.756;2022-09-01T14:27:27;27.50;54.60
63017;DHT22;50274;45.640;11.756;2022-09-01T14:29:53;27.50;53.90
63017;DHT22;50274;45.640;11.756;2022-09-01T14:32:19;27.50;53.90
63017;DHT22;50274;45.640;11.756;2022-09-01T14:34:54;27.40;54.20
63017;DHT22;50274;45.640;11.756;2022-09-01T14:37:21;27.40;54.50
63017;DHT22;50274;45.640;11.756;2022-09-01T14:39:54;27.50;54.60
63017;DHT22;50274;45.640;11.756;2022-09-01T14:42:22;27.50;54.60
63017;DHT22;50274;45.640;11.756;2022-09-01T14:44:51;27.50;54.40
63017;DHT22;50274;45.640;11.756;2022-09-01T14:47:17;27.60;54.40
63017;DHT22;50274;45.640;11.756;2022-09-01T14:49:43;27.60;54.30
63017;DHT22;50274;45.640;11.756;2022-09-01T14:52:10;27.80;53.90
63017;DHT22;50274;45.640;11.756;2022-09-01T14:54:38;28.10;53.40
63017;DHT22;50274;45.640;11.756;2022-09-01T14:57:04;28.10;51.80
63017;DHT22;50274;45.640;11.756;2022-09-01T14:59:31;28.10;47.40
63017;DHT22;50274;45.640;11.756;2022-09-01T15:01:57;27.90;47.40
63017;DHT22;50274;45.640;11.756;2022-09-01T15:04:23;27.70;46.40
63017;DHT22;50274;45.640;11.756;2022-09-01T15:06:49;27.60;46.70
63017;DHT22;50274;45.640;11.756;2022-09-01T15:09:15;27.60;45.90
63017;DHT22;50274;45.640;11.756;2022-09-01T15:11:42;27.40;46.70
63017;DHT22;50274;45.640;11.756;2022-09-01T15:14:08;27.40;47.20
63017;DHT22;50274;45.640;11.756;2022-09-01T15:16:35;27.30;47.40
63017;DHT22;50274;45.640;11.756;2022-09-01T15:19:06;27.20;48.90
63017;DHT22;50274;45.640;11.756;2022-09-01T15:21:34;27.10;51.80
63017;DHT22;50274;45.640;11.756;2022-09-01T15:24:01;27.10;53.50
63017;DHT22;50274;45.640;11.756;2022-09-01T15:26:28;26.90;54.10
63017;DHT22;50274;45.640;11.756;2022-09-01T15:28:54;26.80;54.30
63017;DHT22;50274;45.640;11.756;2022-09-01T15:31:22;26.70;54.60
63017;DHT22;50274;45.640;11.756;2022-09-01T15:33:50;26.60;54.70
63017;DHT22;50274;45.640;11.756;2022-09-01T15:36:19;26.60;54.60
63017;DHT22;50274;45.640;11.756;2022-09-01T15:38:46;26.50;54.80
63017;DHT22;50274;45.640;11.756;2022-09-01T15:41:37;26.40;54.60
63017;DHT22;50274;45.640;11.756;2022-09-01T15:44:05;26.40;54.80
63017;DHT22;50274;45.640;11.756;2022-09-01T15:46:39;26.40;55.00
63017;DHT22;50274;45.640;11.756;2022-09-01T15:49:08;26.40;55.20
63017;DHT22;50274;45.640;11.756;2022-09-01T15:51:40;26.30;55.20
63017;DHT22;50274;45.640;11.756;2022-09-01T15:54:13;26.30;55.20
63017;DHT22;50274;45.640;11.756;2022-09-01T15:56:39;26.30;52.30
63017;DHT22;50274;45.640;11.756;2022-09-01T15:59:06;26.20;50.20
63017;DHT22;50274;45.640;11.756;2022-09-01T16:01:35;26.20;47.80
63017;DHT22;50274;45.640;11.756;2022-09-01T16:04:03;26.10;48.80
63017;DHT22;50274;45.640;11.756;2022-09-01T16:06:30;26.10;47.30
63017;DHT22;50274;45.640;11.756;2022-09-01T16:08:56;26.10;47.40
63017;DHT22;50274;45.640;11.756;2022-09-01T16:11:23;26.00;47.80
63017;DHT22;50274;45.640;11.756;2022-09-01T16:13:50;26.00;47.20
63017;DHT22;50274;45.640;11.756;2022-09-01T16:16:35;26.00;46.20
63017;DHT22;50274;45.640;11.756;2022-09-01T16:22:15;26.00;46.00
63017;DHT22;50274;45.640;11.756;2022-09-01T16:24:46;26.00;44.90
63017;DHT22;50274;45.640;11.756;2022-09-01T16:27:14;25.90;45.20
63017;DHT22;50274;45.640;11.756;2022-09-01T16:32:14;25.70;45.70
63017;DHT22;50274;45.640;11.756;2022-09-01T16:34:43;25.60;46.00
63017;DHT22;50274;45.640;11.756;2022-09-01T16:43:32;25.50;46.50
63017;DHT22;50274;45.640;11.756;2022-09-01T16:51:44;25.30;46.90
63017;DHT22;50274;45.640;11.756;2022-09-01T16:57:15;25.20;47.30
63017;DHT22;50274;45.640;11.756;2022-09-01T16:59:57;25.20;47.70